Time;durP1;ratioP1;P1;durP2;ratioP2;P2;SDS_P1;SDS_P2;PMS_P1;PMS_P2;Temp;Humidity;BMP_temperature;BMP_pressure;BME280_temperature;BME280_humidity;BME280_pressure;Samples;Min_cycle;Max_cycle;Signal;HPM_P1;HPM_P2
2022/06/05 00:00:50;;;;;;;15.50;11.05;;;;;16.80;96559.00;;;;8371888;28;20310;-78
2022/06/05 00:05:00;;;;;;;12.05;10.68;;;;;16.70;96553.00;;;;8373075;28;20230;-76
2022/06/05 00:09:12;;;;;;;12.55;10.35;;;;;16.70;96532.00;;;;8376353;28;20231;-75
2022/06/05 00:13:23;;;;;;;15.43;10.63;;;;;16.70;96532.00;;;;8375118;28;20759;-78
2022/06/05 00:17:26;;;;;;;11.07;9.85;;;;;16.70;96524.00;;;;8379635;28;20663;-76
2022/06/05 00:21:29;;;;;;;10.30;9.23;;;;;16.70;96530.00;;;;8376584;28;20693;-73
2022/06/05 00:25:39;;;;;;;9.57;8.68;;;;;16.70;96526.00;;;;8381147;28;20625;-74
2022/06/05 00:29:58;;;;;;;13.07;9.63;;;;;16.80;96526.00;;;;8373915;28;20230;-76
2022/06/05 00:34:01;;;;;;;17.08;9.88;;;;;16.80;96524.00;;;;8369166;28;20232;-76
2022/06/05 00:38:12;;;;;;;14.02;8.95;;;;;16.70;96520.00;;;;8377274;28;20226;-76
2022/06/05 00:42:19;;;;;;;13.95;10.30;;;;;16.70;96514.00;;;;8374034;28;20299;-77
2022/06/05 00:46:24;;;;;;;20.20;10.35;;;;;16.70;96515.00;;;;8375921;28;20224;-73
2022/06/05 00:50:30;;;;;;;12.80;10.27;;;;;16.70;96507.00;;;;8375269;28;20235;-78
2022/06/05 00:54:34;;;;;;;15.20;10.30;;;;;16.70;96506.00;;;;8374730;28;20236;-76
2022/06/05 00:58:37;;;;;;;17.15;9.98;;;;;16.70;96516.00;;;;8367425;28;20242;-76
2022/06/05 01:02:45;;;;;;;16.63;10.80;;;;;16.80;96516.00;;;;8368789;28;20715;-74
2022/06/05 01:06:48;;;;;;;12.85;10.82;;;;;16.70;96517.00;;;;8373586;28;20766;-79
2022/06/05 01:11:00;;;;;;;17.98;11.38;;;;;16.70;96516.00;;;;8380861;28;20704;-79
2022/06/05 01:15:14;;;;;;;11.93;10.50;;;;;16.60;96517.00;;;;8380649;28;20740;-76
2022/06/05 01:19:40;;;;;;;17.75;11.73;;;;;16.60;96531.00;;;;8376742;28;20306;-75
2022/06/05 01:23:56;;;;;;;14.02;11.07;;;;;16.50;96520.00;;;;8379295;28;20223;-77
2022/06/05 01:28:08;;;;;;;13.23;10.70;;;;;16.50;96517.00;;;;8371251;28;20739;-76
2022/06/05 01:32:14;;;;;;;15.60;11.65;;;;;16.50;96521.00;;;;8382330;28;20393;-72
2022/06/05 01:36:25;;;;;;;14.65;11.43;;;;;16.40;96518.00;;;;8375386;28;20304;-78
2022/06/05 01:40:33;;;;;;;16.02;11.85;;;;;16.40;96521.00;;;;8369955;28;20299;-78
2022/06/05 01:44:41;;;;;;;14.00;11.43;;;;;16.30;96511.00;;;;8374465;28;20311;-79
2022/06/05 01:48:50;;;;;;;15.10;11.05;;;;;16.30;96503.00;;;;8386040;28;20809;-80
2022/06/05 01:52:57;;;;;;;14.65;12.18;;;;;16.30;96501.00;;;;8378985;28;20242;-81
2022/06/05 01:57:05;;;;;;;18.67;12.10;;;;;16.30;96500.00;;;;8379458;28;20715;-78
2022/06/05 02:01:14;;;;;;;17.35;12.25;;;;;16.20;96498.00;;;;8385574;28;20303;-78
2022/06/05 02:05:24;;;;;;;13.10;11.70;;;;;16.20;96497.00;;;;8374231;28;20236;-80
2022/06/05 02:09:32;;;;;;;14.93;11.40;;;;;16.20;96492.00;;;;8380325;28;20230;-81
2022/06/05 02:13:35;;;;;;;15.50;12.65;;;;;16.20;96474.00;;;;8378618;28;20647;-77
2022/06/05 02:17:40;;;;;;;14.55;12.65;;;;;16.20;96474.00;;;;8384033;28;20223;-77
2022/06/05 02:21:44;;;;;;;19.48;13.00;;;;;16.20;96470.00;;;;8382455;28;20307;-79
2022/06/05 02:25:47;;;;;;;17.15;12.52;;;;;16.20;96467.00;;;;8375184;28;20351;-77
2022/06/05 02:29:51;;;;;;;14.63;12.30;;;;;16.20;96475.00;;;;8377301;28;20930;-78
2022/06/05 02:34:06;;;;;;;18.98;12.75;;;;;16.20;96479.00;;;;8363851;28;20227;-77
2022/06/05 02:38:31;;;;;;;19.25;13.45;;;;;16.20;96470.00;;;;8374813;28;20220;-78
2022/06/05 02:42:38;;;;;;;14.82;13.10;;;;;16.20;96474.00;;;;8389527;28;20248;-76
2022/06/05 02:46:50;;;;;;;16.30;12.45;;;;;16.20;96451.00;;;;8371675;28;20861;-76
2022/06/05 02:51:02;;;;;;;21.80;13.73;;;;;16.20;96434.00;;;;8374176;28;20223;-75
2022/06/05 02:55:09;;;;;;;18.02;13.75;;;;;16.20;96418.00;;;;8368565;28;20215;-78
2022/06/05 02:59:12;;;;;;;16.25;13.40;;;;;16.20;96422.00;;;;8380991;28;20731;-77
2022/06/05 03:03:30;;;;;;;16.38;13.57;;;;;16.20;96417.00;;;;8386845;22;20685;-78
2022/06/05 03:07:35;;;;;;;22.98;15.70;;;;;16.20;96412.00;;;;8340966;28;20231;-73
2022/06/05 03:11:38;;;;;;;21.65;15.98;;;;;16.20;96419.00;;;;8339840;28;20239;-77
2022/06/05 03:15:42;;;;;;;20.48;15.90;;;;;16.30;96424.00;;;;8340959;28;20252;-76
2022/06/05 03:19:45;;;;;;;19.10;15.32;;;;;16.30;96417.00;;;;8346175;28;21062;-77
2022/06/05 03:23:50;;;;;;;23.25;16.67;;;;;16.20;96403.00;;;;8343010;28;20232;-77
2022/06/05 03:27:53;;;;;;;20.98;14.55;;;;;16.20;96402.00;;;;8347864;28;20213;-80
2022/06/05 03:31:57;;;;;;;18.60;15.88;;;;;16.20;96389.00;;;;8343679;28;20220;-81
2022/06/05 03:36:01;;;;;;;23.52;16.05;;;;;16.20;96396.00;;;;8348593;28;20811;-77
2022/06/05 03:40:08;;;;;;;23.80;17.45;;;;;16.30;96389.00;;;;8347052;28;20228;-82
2022/06/05 03:44:12;;;;;;;23.98;16.65;;;;;16.30;96392.00;;;;8347303;28;20228;-79
2022/06/05 03:48:16;;;;;;;22.15;16.70;;;;;16.40;96386.00;;;;8342408;28;20307;-79
2022/06/05 03:52:19;;;;;;;21.95;16.58;;;;;16.50;96380.00;;;;8345097;28;20921;-81
2022/06/05 03:56:26;;;;;;;22.13;17.13;;;;;16.60;96386.00;;;;8346969;28;20315;-82
2022/06/05 04:00:29;;;;;;;24.50;16.83;;;;;16.80;96381.00;;;;8346497;28;20220;-80
2022/06/05 04:04:32;;;;;;;20.88;15.05;;;;;17.00;96382.00;;;;8374952;28;20606;-79
2022/06/05 04:08:36;;;;;;;20.25;16.23;;;;;17.40;96389.00;;;;8373549;28;20231;-78
2022/06/05 04:12:41;;;;;;;23.65;16.70;;;;;17.70;96382.00;;;;8368671;28;20331;-79
2022/06/05 04:16:45;;;;;;;21.00;15.63;;;;;18.00;96374.00;;;;8375195;28;20307;-80
2022/06/05 04:20:48;;;;;;;19.98;14.52;;;;;18.20;96360.00;;;;8371941;28;20819;-79
2022/06/05 04:24:51;;;;;;;23.20;14.77;;;;;18.30;96386.00;;;;8370709;28;20728;-76
2022/06/05 04:28:56;;;;;;;17.98;13.88;;;;;18.40;96375.00;;;;8370542;28;20230;-81
2022/06/05 04:33:00;;;;;;;19.10;14.73;;;;;18.50;96375.00;;;;8369829;28;20315;-79
2022/06/05 04:37:04;;;;;;;16.02;13.55;;;;;18.70;96371.00;;;;8369177;28;20284;-75
2022/06/05 04:41:07;;;;;;;22.52;14.70;;;;;18.70;96371.00;;;;8374076;28;20700;-75
2022/06/05 04:45:12;;;;;;;19.25;14.25;;;;;18.80;96382.00;;;;8372966;28;20306;-76
2022/06/05 04:49:16;;;;;;;16.42;13.43;;;;;19.00;96390.00;;;;8372244;28;20235;-77
2022/06/05 04:53:19;;;;;;;18.73;12.45;;;;;19.20;96382.00;;;;8366708;28;21128;-75
2022/06/05 04:57:22;;;;;;;15.63;12.65;;;;;19.30;96379.00;;;;8363314;28;20773;-75
2022/06/05 05:01:29;;;;;;;13.45;11.07;;;;;19.60;96376.00;;;;8368548;28;22216;-78
2022/06/05 05:05:34;;;;;;;16.23;12.98;;;;;19.80;96366.00;;;;8372508;28;20339;-78
2022/06/05 05:09:37;;;;;;;15.35;12.73;;;;;19.80;96358.00;;;;8372064;28;20234;-75
2022/06/05 05:13:41;;;;;;;15.02;11.57;;;;;19.90;96346.00;;;;8360982;28;20331;-78
2022/06/05 05:17:46;;;;;;;12.40;10.50;;;;;20.30;96356.00;;;;8366435;28;20303;-77
2022/06/05 05:21:49;;;;;;;12.38;10.85;;;;;20.50;96338.00;;;;8367631;28;20227;-77
2022/06/05 05:25:53;;;;;;;12.75;10.82;;;;;20.30;96325.00;;;;8364335;28;20224;-77
2022/06/05 05:29:56;;;;;;;13.20;10.52;;;;;20.10;96325.00;;;;8374885;28;20217;-73
2022/06/05 05:34:01;;;;;;;14.82;10.40;;;;;20.00;96313.00;;;;8367311;28;20290;-76
2022/06/05 05:38:04;;;;;;;15.02;11.13;;;;;19.90;96299.00;;;;8360547;28;20299;-75
2022/06/05 05:42:07;;;;;;;15.88;10.90;;;;;19.90;96297.00;;;;8370437;28;20922;-80
2022/06/05 05:46:11;;;;;;;14.63;10.68;;;;;20.00;96289.00;;;;8375658;28;20220;-78
2022/06/05 05:50:17;;;;;;;11.50;10.30;;;;;20.20;96288.00;;;;8374433;28;20920;-79
2022/06/05 05:54:20;;;;;;;12.13;10.43;;;;;20.90;96306.00;;;;8377967;28;20242;-77
2022/06/05 05:58:23;;;;;;;10.85;9.55;;;;;21.40;96313.00;;;;8372492;28;20235;-77
2022/06/05 06:02:26;;;;;;;10.80;9.70;;;;;21.90;96308.00;;;;8380029;28;20228;-78
2022/06/05 06:06:34;;;;;;;12.13;9.88;;;;;22.20;96299.00;;;;8374636;28;20240;-80
2022/06/05 06:10:38;;;;;;;11.02;9.45;;;;;22.40;96301.00;;;;8377534;28;20707;-78
2022/06/05 06:14:41;;;;;;;11.00;9.93;;;;;22.60;96310.00;;;;8373742;28;20228;-75
2022/06/05 06:18:44;;;;;;;11.57;9.45;;;;;22.60;96315.00;;;;8377440;28;20226;-73
2022/06/05 06:22:49;;;;;;;10.48;9.15;;;;;22.70;96310.00;;;;8379532;28;20248;-74
2022/06/05 06:26:52;;;;;;;10.57;9.20;;;;;23.10;96301.00;;;;8371531;28;20738;-73
2022/06/05 06:30:56;;;;;;;10.10;9.10;;;;;23.50;96287.00;;;;8376134;28;20232;-73
2022/06/05 06:34:59;;;;;;;9.52;8.60;;;;;23.90;96277.00;;;;8373127;28;20302;-73
2022/06/05 06:39:04;;;;;;;10.32;9.13;;;;;24.00;96279.00;;;;8372434;28;20248;-71
2022/06/05 06:43:07;;;;;;;9.30;8.40;;;;;24.30;96275.00;;;;8370494;28;20227;-71
2022/06/05 06:47:11;;;;;;;9.55;8.65;;;;;24.40;96286.00;;;;8374027;28;20220;-70
2022/06/05 06:51:15;;;;;;;9.82;8.70;;;;;24.40;96299.00;;;;8373156;28;20557;-69
2022/06/05 06:55:21;;;;;;;9.60;8.02;;;;;24.50;96295.00;;;;8370773;28;20223;-69
2022/06/05 06:59:25;;;;;;;9.90;8.23;;;;;24.80;96299.00;;;;8370780;28;20242;-71
2022/06/05 07:03:28;;;;;;;8.70;7.85;;;;;25.20;96294.00;;;;8373467;28;20302;-72
2022/06/05 07:07:31;;;;;;;8.32;7.20;;;;;25.80;96291.00;;;;8374737;28;20235;-71
2022/06/05 07:11:36;;;;;;;8.55;7.07;;;;;26.00;96288.00;;;;8366488;28;20319;-71
2022/06/05 07:15:40;;;;;;;11.27;7.82;;;;;25.60;96295.00;;;;8365508;28;20318;-71
2022/06/05 07:19:47;;;;;;;7.57;6.93;;;;;25.20;96294.00;;;;8367583;28;20243;-72
2022/06/05 07:23:50;;;;;;;8.23;7.50;;;;;25.00;96287.00;;;;8373675;28;20327;-72
2022/06/05 07:27:54;;;;;;;9.13;8.23;;;;;24.70;96286.00;;;;8370539;28;20216;-73
2022/06/05 07:31:58;;;;;;;8.30;7.55;;;;;24.70;96282.00;;;;8368012;28;20980;-73
2022/06/05 07:36:03;;;;;;;8.32;7.53;;;;;24.80;96284.00;;;;8373389;28;20580;-73
2022/06/05 07:40:08;;;;;;;9.43;8.45;;;;;24.70;96288.00;;;;8366352;28;20238;-70
2022/06/05 07:44:12;;;;;;;9.27;8.38;;;;;24.70;96286.00;;;;8363249;28;20224;-70
2022/06/05 07:48:17;;;;;;;9.57;8.57;;;;;24.90;96289.00;;;;8368077;28;20298;-71
2022/06/05 07:56:56;;;;;;;9.20;8.30;;;;;24.90;96290.00;;;;8268460;28;20256;-71
2022/06/05 08:01:01;;;;;;;8.13;7.43;;;;;25.00;96301.00;;;;8322268;28;20286;-72
2022/06/05 08:05:05;;;;;;;8.43;7.50;;;;;24.90;96321.00;;;;8375777;28;20724;-71
2022/06/05 08:09:09;;;;;;;8.75;7.90;;;;;24.80;96336.00;;;;8377507;28;20745;-71
2022/06/05 08:13:12;;;;;;;10.27;7.65;;;;;24.70;96371.00;;;;8369666;28;20303;-71
2022/06/05 08:17:22;;;;;;;8.40;7.55;;;;;24.60;96418.00;;;;8375128;28;20231;-71
2022/06/05 08:21:26;;;;;;;9.02;7.40;;;;;24.60;96471.00;;;;8377076;28;20306;-71
2022/06/05 08:25:30;;;;;;;8.90;6.97;;;;;24.90;96502.00;;;;8373119;28;20322;-71
2022/06/05 08:29:35;;;;;;;7.88;7.03;;;;;25.30;96488.00;;;;8370174;28;20285;-71
2022/06/05 08:33:41;;;;;;;7.43;6.82;;;;;25.70;96500.00;;;;8371086;28;20266;-71
2022/06/05 08:42:18;;;;;;;7.78;7.07;;;;;26.00;96510.00;;;;8379541;28;20234;-71
2022/06/05 08:46:27;;;;;;;7.25;6.65;;;;;26.30;96520.00;;;;8366049;28;20232;-71
2022/06/05 08:50:38;;;;;;;7.40;6.68;;;;;26.50;96521.00;;;;8360199;28;20255;-71
2022/06/05 08:54:46;;;;;;;9.43;6.75;;;;;26.20;96515.00;;;;8362585;28;20228;-71
2022/06/05 08:58:55;;;;;;;7.57;6.85;;;;;25.90;96503.00;;;;8369825;28;20303;-70
2022/06/05 09:03:03;;;;;;;7.32;6.55;;;;;25.70;96489.00;;;;8367317;28;20242;-72
2022/06/05 09:07:14;;;;;;;8.40;7.53;;;;;25.60;96487.00;;;;8376386;28;20709;-72
2022/06/05 09:11:30;;;;;;;7.47;6.88;;;;;25.10;96485.00;;;;8372641;28;20330;-72
2022/06/05 09:15:38;;;;;;;10.48;6.90;;;;;24.60;96485.00;;;;8373980;28;20228;-72
2022/06/05 09:19:42;;;;;;;8.15;7.28;;;;;24.00;96465.00;;;;8374982;28;20227;-72
2022/06/05 09:23:57;;;;;;;16.40;9.13;;;;;22.60;96439.00;;;;8369583;28;20230;-75
2022/06/05 09:28:18;;;;;;;13.77;10.00;;;;;21.10;96414.00;;;;8374472;28;20962;-73
2022/06/05 09:32:44;;;;;;;12.10;10.02;;;;;20.30;96385.00;;;;8384086;28;20203;-79
2022/06/05 09:36:57;;;;;;;19.83;10.95;;;;;19.80;96357.00;;;;8376835;28;20255;-72
2022/06/05 09:41:17;;;;;;;15.15;11.98;;;;;19.60;96323.00;;;;8377515;28;20300;-74
2022/06/05 09:45:29;;;;;;;14.10;11.52;;;;;19.40;96318.00;;;;8383721;28;20215;-70
2022/06/05 09:49:37;;;;;;;19.35;11.60;;;;;19.30;96353.00;;;;8378991;28;20646;-71
2022/06/05 09:53:45;;;;;;;16.73;12.13;;;;;19.50;96337.00;;;;8379764;28;20222;-71
2022/06/05 10:02:22;;;;;;;23.00;13.65;;;;;20.20;96318.00;;;;8375891;28;20225;-70
2022/06/05 10:06:31;;;;;;;18.75;14.13;;;;;20.80;96305.00;;;;8382779;28;20188;-70
2022/06/05 10:10:38;;;;;;;18.67;12.23;;;;;21.20;96301.00;;;;8376044;28;20210;-70
2022/06/05 10:14:51;;;;;;;17.05;11.93;;;;;21.70;96300.00;;;;8384584;28;20724;-69
2022/06/05 10:19:00;;;;;;;16.35;12.65;;;;;22.80;96307.00;;;;8383324;28;20212;-72
2022/06/05 10:23:14;;;;;;;16.98;10.07;;;;;23.30;96285.00;;;;8378773;28;20275;-74
2022/06/05 10:27:19;;;;;;;13.98;11.63;;;;;23.30;96275.00;;;;8376485;28;20200;-71
2022/06/05 10:31:30;;;;;;;21.15;12.73;;;;;23.20;96269.00;;;;8380289;28;20568;-71
2022/06/05 10:35:46;;;;;;;14.45;10.73;;;;;23.10;96265.00;;;;8380739;28;20235;-75
2022/06/05 10:40:01;;;;;;;14.00;11.68;;;;;23.00;96243.00;;;;8382282;28;20287;-70
2022/06/05 10:44:18;;;;;;;13.90;11.15;;;;;23.60;96244.00;;;;8382176;28;20941;-70
2022/06/05 10:48:42;;;;;;;12.07;10.73;;;;;24.10;96255.00;;;;8378333;28;20214;-71
2022/06/05 10:52:51;;;;;;;11.60;10.40;;;;;24.70;96270.00;;;;8375304;28;20625;-73
2022/06/05 10:57:00;;;;;;;13.32;10.25;;;;;24.50;96273.00;;;;8377165;28;20234;-71
2022/06/05 11:01:19;;;;;;;13.27;9.75;;;;;24.10;96280.00;;;;8372711;28;20319;-71
2022/06/05 11:05:36;;;;;;;13.75;9.73;;;;;24.20;96281.00;;;;8370134;28;20208;-72
2022/06/05 11:09:47;;;;;;;10.88;9.63;;;;;24.10;96292.00;;;;8376016;28;20196;-71
2022/06/05 11:14:07;;;;;;;10.43;9.05;;;;;24.00;96278.00;;;;8376669;28;20211;-71
2022/06/05 11:18:38;;;;;;;10.10;8.98;;;;;24.60;96269.00;;;;8370752;28;20241;-72
2022/06/05 11:22:54;;;;;;;9.65;8.75;;;;;24.90;96252.00;;;;8378592;28;20208;-74
2022/06/05 11:27:07;;;;;;;12.05;9.18;;;;;25.30;96246.00;;;;8369403;28;20227;-73
2022/06/05 11:31:21;;;;;;;10.15;9.02;;;;;26.70;96241.00;;;;8377010;28;20208;-72
2022/06/05 11:35:34;;;;;;;10.13;9.02;;;;;27.00;96239.00;;;;8374808;28;20210;-74
2022/06/05 11:39:50;;;;;;;17.10;9.07;;;;;26.70;96233.00;;;;8367258;28;20202;-74
2022/06/05 11:44:14;;;;;;;10.73;9.32;;;;;26.30;96237.00;;;;8371894;28;20197;-74
2022/06/05 11:48:24;;;;;;;9.93;8.93;;;;;26.30;96234.00;;;;8365659;28;20203;-74
2022/06/05 11:52:33;;;;;;;9.23;8.27;;;;;26.40;96219.00;;;;8372112;28;20609;-73
2022/06/05 11:56:49;;;;;;;9.85;8.85;;;;;27.00;96207.00;;;;8364923;28;20243;-73
2022/06/05 12:00:56;;;;;;;10.75;8.90;;;;;27.50;96213.00;;;;8366162;28;21935;-73
2022/06/05 12:05:05;;;;;;;10.88;9.00;;;;;28.20;96213.00;;;;8368194;28;21791;-73
2022/06/05 12:09:14;;;;;;;10.10;8.57;;;;;28.50;96203.00;;;;8361989;28;20320;-72
2022/06/05 12:13:42;;;;;;;9.35;8.35;;;;;28.50;96202.00;;;;8371446;28;20207;-73
2022/06/05 12:17:55;;;;;;;10.05;9.15;;;;;28.50;96200.00;;;;8371666;28;20270;-71
2022/06/05 12:22:05;;;;;;;9.18;8.15;;;;;29.30;96202.00;;;;8370445;28;20197;-72
2022/06/05 12:26:21;;;;;;;14.13;8.57;;;;;30.20;96202.00;;;;8372403;28;20235;-71
2022/06/05 12:30:31;;;;;;;10.27;8.35;;;;;30.00;96185.00;;;;8368481;28;20883;-70
2022/06/05 12:34:41;;;;;;;8.70;7.93;;;;;30.70;96191.00;;;;8371087;28;20522;-72
2022/06/05 12:38:49;;;;;;;7.97;7.28;;;;;31.90;96186.00;;;;8373882;28;20242;-73
2022/06/05 12:42:56;;;;;;;8.55;7.72;;;;;32.10;96188.00;;;;8364886;28;20200;-73
2022/06/05 12:47:09;;;;;;;8.02;7.32;;;;;31.80;96188.00;;;;8376159;28;20335;-73
2022/06/05 12:51:18;;;;;;;9.95;7.00;;;;;31.40;96173.00;;;;8361805;28;20201;-74
2022/06/05 12:55:26;;;;;;;8.23;7.63;;;;;31.10;96168.00;;;;8374774;28;20239;-73
2022/06/05 12:59:40;;;;;;;7.93;7.22;;;;;31.00;96156.00;;;;8359031;28;20309;-74
2022/06/05 13:03:50;;;;;;;8.07;7.38;;;;;31.00;96154.00;;;;8366943;28;21020;-73
2022/06/05 13:07:59;;;;;;;9.40;8.50;;;;;31.30;96156.00;;;;8358823;28;20205;-74
2022/06/05 13:12:05;;;;;;;8.60;7.80;;;;;32.00;96142.00;;;;8378133;28;20243;-73
2022/06/05 13:16:23;;;;;;;9.15;8.35;;;;;31.50;96145.00;;;;8373688;28;20713;-73
2022/06/05 13:20:34;;;;;;;8.40;7.60;;;;;31.60;96148.00;;;;8370022;28;20189;-73
2022/06/05 13:24:46;;;;;;;8.63;7.82;;;;;32.40;96144.00;;;;8383148;28;20236;-73
2022/06/05 13:28:57;;;;;;;7.68;6.97;;;;;32.60;96135.00;;;;8371884;28;20658;-72
2022/06/05 13:33:05;;;;;;;8.27;7.07;;;;;32.80;96134.00;;;;8365325;28;20204;-72
2022/06/05 13:37:15;;;;;;;9.80;7.10;;;;;33.60;96134.00;;;;8385267;28;20251;-71
2022/06/05 13:41:23;;;;;;;8.98;6.85;;;;;33.30;96143.00;;;;8379787;28;20193;-72
2022/06/05 13:45:36;;;;;;;11.57;6.43;;;;;33.30;96151.00;;;;8376459;28;20196;-72
2022/06/05 13:49:49;;;;;;;6.80;6.30;;;;;33.60;96150.00;;;;8378390;28;20208;-72
2022/06/05 13:54:03;;;;;;;7.20;6.60;;;;;33.60;96143.00;;;;8379086;28;20228;-72
2022/06/05 13:58:17;;;;;;;9.27;7.55;;;;;33.50;96139.00;;;;8379189;28;20338;-72
2022/06/05 14:02:33;;;;;;;8.00;7.20;;;;;33.50;96138.00;;;;8379446;28;20307;-72
2022/06/05 14:06:40;;;;;;;12.95;7.72;;;;;33.10;96138.00;;;;8379259;28;20232;-72
2022/06/05 14:10:58;;;;;;;7.95;7.18;;;;;32.70;96134.00;;;;8371870;28;20944;-72
2022/06/05 14:15:14;;;;;;;7.55;6.88;;;;;34.00;96137.00;;;;8373983;28;20561;-73
2022/06/05 14:19:24;;;;;;;7.80;7.10;;;;;35.70;96128.00;;;;8372122;28;20246;-72
2022/06/05 14:23:29;;;;;;;8.43;7.63;;;;;34.70;96116.00;;;;8381496;28;20284;-72
2022/06/05 14:27:36;;;;;;;8.30;7.50;;;;;33.60;96121.00;;;;8373745;28;20254;-73
2022/06/05 14:31:40;;;;;;;8.43;7.63;;;;;32.90;96121.00;;;;8364147;28;20266;-72
2022/06/05 14:35:47;;;;;;;9.27;7.82;;;;;32.70;96109.00;;;;8367871;28;20228;-72
2022/06/05 14:39:54;;;;;;;10.00;8.13;;;;;32.00;96110.00;;;;8375152;28;20220;-72
2022/06/05 14:44:02;;;;;;;9.15;8.25;;;;;31.30;96105.00;;;;8373057;28;20539;-72
2022/06/05 14:48:14;;;;;;;9.15;8.25;;;;;31.00;96100.00;;;;8372635;28;20220;-72
2022/06/05 14:52:32;;;;;;;12.10;8.18;;;;;30.70;96097.00;;;;8381850;28;20607;-72
2022/06/05 15:01:16;;;;;;;10.65;8.45;;;;;29.50;96079.00;;;;8376969;28;20212;-72
2022/06/05 15:05:23;;;;;;;9.80;8.90;;;;;29.00;96079.00;;;;8369556;28;20224;-72
2022/06/05 15:09:45;;;;;;;10.32;9.23;;;;;28.40;96085.00;;;;8381371;28;20283;-72
2022/06/05 15:13:55;;;;;;;9.85;8.85;;;;;27.70;96117.00;;;;8364429;28;20196;-72
2022/06/05 15:18:01;;;;;;;10.18;8.80;;;;;27.20;96126.00;;;;8370327;28;20581;-71
2022/06/05 15:22:18;;;;;;;12.05;9.40;;;;;26.70;96113.00;;;;8369510;28;20210;-68
2022/06/05 15:26:32;;;;;;;11.88;10.13;;;;;26.40;96095.00;;;;8369433;28;20211;-69
2022/06/05 15:30:43;;;;;;;11.93;9.70;;;;;26.10;96081.00;;;;8369937;28;20203;-68
2022/06/05 15:34:54;;;;;;;11.25;10.07;;;;;25.80;96070.00;;;;8368414;28;20546;-68
2022/06/05 15:39:11;;;;;;;11.30;10.18;;;;;25.40;96069.00;;;;8370493;28;20224;-70
2022/06/05 15:43:28;;;;;;;14.18;11.75;;;;;24.90;96104.00;;;;8369694;28;20204;-69
2022/06/05 15:47:45;;;;;;;15.32;12.07;;;;;24.20;96129.00;;;;8372006;28;20582;-69
2022/06/05 15:52:10;;;;;;;22.23;15.88;;;;;22.80;96138.00;;;;8369343;28;20201;-74
2022/06/05 15:56:47;;;;;;;81.40;27.45;;;;;21.70;96173.00;;;;8371724;28;20477;-69
2022/06/05 16:01:04;;;;;;;2.55;2.35;;;;;21.00;96194.00;;;;8355057;28;20210;-72
2022/06/05 16:05:18;;;;;;;35.45;5.55;;;;;20.00;96164.00;;;;8380014;28;20232;-74
2022/06/05 16:09:31;;;;;;;23.65;4.53;;;;;19.60;96158.00;;;;8372076;28;20223;-69
2022/06/05 16:13:42;;;;;;;17.98;5.45;;;;;19.60;96167.00;;;;8370634;28;20197;-69
2022/06/05 16:18:03;;;;;;;16.35;5.35;;;;;19.60;96179.00;;;;8365564;28;20741;-69
2022/06/05 16:22:17;;;;;;;12.77;5.00;;;;;19.60;96182.00;;;;8370799;28;20783;-70
2022/06/05 16:26:35;;;;;;;14.27;4.95;;;;;19.70;96199.00;;;;8368237;28;20730;-70
2022/06/05 16:30:41;;;;;;;16.63;4.95;;;;;19.50;96233.00;;;;8367321;28;20682;-69
2022/06/05 16:39:14;;;;;;;10.23;3.70;;;;;19.00;96222.00;;;;8367165;28;20681;-69
2022/06/05 16:43:21;;;;;;;10.25;3.90;;;;;18.90;96210.00;;;;8367972;28;20254;-69
2022/06/05 16:47:50;;;;;;;11.75;4.15;;;;;18.90;96230.00;;;;8368078;28;20231;-77
2022/06/05 16:51:55;;;;;;;15.55;3.92;;;;;18.70;96228.00;;;;8356934;28;20956;-73
2022/06/05 16:56:16;;;;;;;0.40;0.40;;;;;18.20;96187.00;;;;8368246;28;20228;-73
2022/06/05 17:00:25;;;;;;;4.68;2.17;;;;;18.10;96190.00;;;;8364272;28;20232;-69
2022/06/05 17:04:34;;;;;;;8.30;2.70;;;;;18.10;96202.00;;;;8365775;28;20258;-71
2022/06/05 17:08:46;;;;;;;10.60;3.22;;;;;18.10;96205.00;;;;8366255;28;20192;-70
2022/06/05 17:12:52;;;;;;;6.72;4.10;;;;;18.20;96185.00;;;;8370074;28;20200;-71
2022/06/05 17:17:15;;;;;;;13.52;5.20;;;;;18.20;96179.00;;;;8373503;28;20921;-70
2022/06/05 17:21:20;;;;;;;10.20;5.47;;;;;18.30;96198.00;;;;8367116;28;20847;-72
2022/06/05 17:25:36;;;;;;;11.85;5.50;;;;;18.40;96221.00;;;;8368088;28;20204;-72
2022/06/05 17:30:00;;;;;;;8.45;5.10;;;;;18.50;96249.00;;;;8367346;28;20663;-72
2022/06/05 17:34:23;;;;;;;13.20;4.78;;;;;18.60;96256.00;;;;8365508;28;20827;-71
2022/06/05 17:38:51;;;;;;;9.40;5.07;;;;;18.60;96252.00;;;;8366792;28;20230;-73
2022/06/05 17:43:03;;;;;;;7.70;4.93;;;;;18.60;96258.00;;;;8363114;28;20203;-74
2022/06/05 17:47:18;;;;;;;9.32;5.43;;;;;18.60;96257.00;;;;8365095;28;20205;-74
2022/06/05 17:51:35;;;;;;;9.73;6.10;;;;;18.60;96248.00;;;;8381764;28;20543;-70
2022/06/05 17:55:38;;;;;;;15.93;6.32;;;;;18.70;96252.00;;;;8378704;28;20212;-71
2022/06/05 17:59:44;;;;;;;9.23;5.65;;;;;18.70;96250.00;;;;8378471;28;20319;-71
2022/06/05 18:03:47;;;;;;;7.85;4.68;;;;;18.60;96257.00;;;;8370138;28;20847;-72
2022/06/05 18:07:58;;;;;;;8.43;4.63;;;;;18.60;96262.00;;;;8379117;28;20291;-73
2022/06/05 18:12:06;;;;;;;14.02;4.60;;;;;18.50;96268.00;;;;8375593;28;20215;-70
2022/06/05 18:16:18;;;;;;;8.70;4.70;;;;;18.50;96278.00;;;;8374961;28;20207;-71
2022/06/05 18:20:25;;;;;;;11.63;4.15;;;;;18.50;96269.00;;;;8367943;28;20255;-70
2022/06/05 18:24:33;;;;;;;12.57;3.92;;;;;18.50;96273.00;;;;8373740;28;20206;-67
2022/06/05 18:28:42;;;;;;;7.93;4.18;;;;;18.50;96272.00;;;;8377850;28;20670;-69
2022/06/05 18:32:55;;;;;;;7.82;3.85;;;;;18.40;96273.00;;;;8372841;28;20311;-71
2022/06/05 18:41:39;;;;;;;5.43;3.03;;;;;18.40;96281.00;;;;8380213;28;20697;-72
2022/06/05 18:45:47;;;;;;;5.07;3.13;;;;;18.40;96275.00;;;;8375406;28;20219;-70
2022/06/05 18:49:53;;;;;;;7.93;3.72;;;;;18.40;96281.00;;;;8381869;28;20297;-72
2022/06/05 18:53:59;;;;;;;10.75;3.50;;;;;18.40;96276.00;;;;8373371;28;20473;-71
2022/06/05 18:58:24;;;;;;;6.10;3.72;;;;;18.40;96280.00;;;;8373690;28;20315;-74
2022/06/05 19:02:28;;;;;;;11.52;3.40;;;;;18.40;96273.00;;;;8377232;28;20235;-69
2022/06/05 19:06:38;;;;;;;9.98;4.00;;;;;18.50;96272.00;;;;8380841;28;20227;-69
2022/06/05 19:10:43;;;;;;;7.22;3.80;;;;;18.60;96264.00;;;;8375118;28;20208;-70
2022/06/05 19:14:54;;;;;;;7.07;3.60;;;;;18.60;96269.00;;;;8372276;28;20195;-74
2022/06/05 19:19:08;;;;;;;13.18;3.42;;;;;18.70;96270.00;;;;8372213;28;20629;-74
2022/06/05 19:23:25;;;;;;;8.85;3.40;;;;;18.70;96265.00;;;;8370333;28;20225;-75
2022/06/05 19:27:31;;;;;;;6.03;3.20;;;;;18.70;96268.00;;;;8368063;28;20230;-72
2022/06/05 19:31:42;;;;;;;10.20;3.60;;;;;18.70;96286.00;;;;8370527;28;20207;-73
2022/06/05 19:40:26;;;;;;;6.43;3.72;;;;;18.60;96302.00;;;;8370080;28;20224;-76
2022/06/05 19:44:33;;;;;;;8.50;3.20;;;;;18.60;96310.00;;;;8368722;28;20193;-75
2022/06/05 19:48:39;;;;;;;7.40;3.50;;;;;18.50;96324.00;;;;8375455;28;20790;-73
2022/06/05 19:52:42;;;;;;;7.60;3.70;;;;;18.50;96337.00;;;;8374991;28;20227;-70
2022/06/05 19:56:46;;;;;;;9.45;3.83;;;;;18.40;96358.00;;;;8381497;28;20262;-75
2022/06/05 20:01:14;;;;;;;8.50;3.50;;;;;18.40;96366.00;;;;8376301;28;20307;-72
2022/06/05 20:05:25;;;;;;;7.43;4.07;;;;;18.40;96378.00;;;;8380373;28;20247;-70
2022/06/05 20:09:34;;;;;;;11.00;3.83;;;;;18.40;96380.00;;;;8377114;28;20261;-72
2022/06/05 20:13:48;;;;;;;11.48;5.90;;;;;18.40;96393.00;;;;8369532;28;20626;-72
2022/06/05 20:18:02;;;;;;;9.50;4.18;;;;;18.30;96390.00;;;;8377949;28;20979;-75
2022/06/05 20:22:20;;;;;;;6.47;3.75;;;;;18.30;96395.00;;;;8373743;28;20411;-72
2022/06/05 20:26:25;;;;;;;8.65;3.75;;;;;18.30;96390.00;;;;8379364;28;20214;-73
2022/06/05 20:30:32;;;;;;;9.63;3.85;;;;;18.30;96390.00;;;;8369025;28;20239;-68
2022/06/05 20:34:49;;;;;;;9.13;3.85;;;;;18.30;96388.00;;;;8367853;28;20196;-71
2022/06/05 20:38:56;;;;;;;11.60;4.25;;;;;18.40;96377.00;;;;8372394;28;20596;-73
2022/06/05 20:43:08;;;;;;;7.93;3.83;;;;;18.40;96384.00;;;;8377314;28;20809;-71
2022/06/05 20:47:29;;;;;;;17.83;4.70;;;;;18.50;96383.00;;;;8374720;28;20242;-75
2022/06/05 20:51:34;;;;;;;6.70;3.67;;;;;18.50;96382.00;;;;8377467;28;20649;-74
2022/06/05 20:55:42;;;;;;;9.45;3.97;;;;;18.50;96386.00;;;;8371616;28;20199;-72
2022/06/05 20:59:46;;;;;;;10.55;4.15;;;;;18.50;96390.00;;;;8366977;28;20245;-71
2022/06/05 21:08:14;;;;;;;8.30;4.20;;;;;18.40;96394.00;;;;8376844;28;20200;-74